Time;durP1;ratioP1;P1;durP2;ratioP2;P2;SDS_P1;SDS_P2;PMS_P1;PMS_P2;Temp;Humidity;BMP_temperature;BMP_pressure;BME280_temperature;BME280_humidity;BME280_pressure;Samples;Min_cycle;Max_cycle;Signal;HPM_P1;HPM_P2
2021/12/22 00:00:38;;;;;;;81.05;34.83;;;0.80;99.90;;;;;;5014066;28;20022;-88
2021/12/22 00:03:06;;;;;;;61.92;28.77;;;0.90;99.90;;;;;;4996221;28;20030;-87
2021/12/22 00:05:32;;;;;;;64.20;29.92;;;1.00;99.90;;;;;;5013607;28;20034;-87
2021/12/22 00:07:59;;;;;;;81.55;30.27;;;1.00;99.90;;;;;;5013668;28;20025;-88
2021/12/22 00:10:25;;;;;;;60.03;28.17;;;1.00;99.90;;;;;;5013345;28;20108;-87
2021/12/22 00:12:52;;;;;;;61.20;28.88;;;1.00;99.90;;;;;;5015311;28;20405;-88
2021/12/22 00:15:18;;;;;;;59.00;28.38;;;1.00;99.90;;;;;;4996548;28;20085;-87
2021/12/22 00:17:44;;;;;;;60.55;28.13;;;1.00;99.90;;;;;;4995836;28;20450;-87
2021/12/22 00:20:12;;;;;;;64.68;29.55;;;1.10;99.90;;;;;;5013228;28;20045;-88
2021/12/22 00:22:38;;;;;;;62.45;29.13;;;1.10;99.90;;;;;;4995328;28;20033;-87
2021/12/22 00:25:04;;;;;;;59.33;28.95;;;1.00;99.90;;;;;;5013518;28;20475;-88
2021/12/22 00:27:30;;;;;;;60.30;28.63;;;0.90;99.90;;;;;;5013386;28;20037;-88
2021/12/22 00:29:56;;;;;;;69.05;32.13;;;1.00;99.90;;;;;;5013374;28;20022;-87
2021/12/22 00:32:23;;;;;;;66.55;29.02;;;1.10;99.90;;;;;;5013037;28;20037;-88
2021/12/22 00:34:53;;;;;;;63.50;29.75;;;1.00;99.90;;;;;;5012969;28;20022;-87
2021/12/22 00:37:22;;;;;;;67.00;30.00;;;1.00;99.90;;;;;;5013158;28;20033;-88
2021/12/22 00:39:48;;;;;;;60.00;29.60;;;1.00;99.90;;;;;;5012973;28;20486;-88
2021/12/22 00:42:14;;;;;;;54.70;26.85;;;1.10;99.90;;;;;;5013132;28;20036;-88
2021/12/22 00:44:42;;;;;;;62.35;27.65;;;1.00;99.90;;;;;;5012968;28;20026;-88
2021/12/22 00:47:09;;;;;;;58.42;27.90;;;1.00;99.90;;;;;;4995257;28;20025;-89
2021/12/22 00:49:35;;;;;;;56.67;28.02;;;1.00;99.90;;;;;;5012584;28;20026;-88
2021/12/22 00:52:01;;;;;;;54.03;27.10;;;1.00;99.90;;;;;;4995137;28;20482;-88
2021/12/22 00:54:28;;;;;;;341.90;51.63;;;1.00;99.90;;;;;;5012660;28;20051;-88
2021/12/22 00:57:00;;;;;;;52.17;26.98;;;0.90;99.90;;;;;;5012674;28;20049;-88
2021/12/22 00:59:26;;;;;;;55.47;26.80;;;0.90;99.90;;;;;;5012694;28;20026;-87
2021/12/22 01:01:52;;;;;;;58.55;27.98;;;0.80;99.90;;;;;;5012723;28;20446;-87
2021/12/22 01:04:18;;;;;;;55.60;26.42;;;0.90;99.90;;;;;;5012883;28;20033;-87
2021/12/22 01:06:44;;;;;;;54.75;26.50;;;1.00;99.90;;;;;;4995023;28;20169;-88
2021/12/22 01:09:10;;;;;;;55.15;27.08;;;0.90;99.90;;;;;;5012459;28;20112;-88
2021/12/22 01:11:36;;;;;;;56.45;27.40;;;0.90;99.90;;;;;;5012480;28;20157;-87
2021/12/22 01:14:03;;;;;;;50.03;25.85;;;1.00;99.90;;;;;;4994636;28;20030;-88
2021/12/22 01:16:29;;;;;;;53.65;26.48;;;1.00;99.90;;;;;;5012196;28;20049;-88
2021/12/22 01:18:59;;;;;;;53.40;24.67;;;0.90;99.90;;;;;;5012397;28;20052;-87
2021/12/22 01:21:38;;;;;;;50.78;25.17;;;0.90;99.90;;;;;;5012356;28;20018;-88
2021/12/22 01:24:20;;;;;;;49.55;25.10;;;0.90;99.90;;;;;;5012343;28;20026;-87
2021/12/22 01:26:51;;;;;;;74.65;26.02;;;1.00;99.90;;;;;;5012282;28;20522;-87
2021/12/22 01:29:17;;;;;;;50.22;24.85;;;0.90;99.90;;;;;;4994437;28;20076;-88
2021/12/22 01:31:43;;;;;;;50.20;25.05;;;0.80;99.90;;;;;;5011937;28;20033;-87
2021/12/22 01:34:10;;;;;;;52.13;23.90;;;0.90;99.90;;;;;;5010954;28;20026;-88
2021/12/22 01:36:36;;;;;;;49.75;22.90;;;0.80;99.90;;;;;;5011840;28;20026;-87
2021/12/22 01:39:04;;;;;;;56.88;25.65;;;0.80;99.90;;;;;;4994177;28;20129;-87
2021/12/22 01:41:30;;;;;;;57.58;26.92;;;0.80;99.90;;;;;;5011921;28;20305;-87
2021/12/22 01:43:56;;;;;;;55.70;25.58;;;0.80;99.90;;;;;;5011998;28;20267;-87
2021/12/22 01:49:10;;;;;;;62.38;26.73;;;0.80;99.90;;;;;;5011515;28;20025;-87
2021/12/22 01:51:56;;;;;;;212.77;37.03;;;0.70;99.90;;;;;;4993901;28;20368;-88
2021/12/22 01:54:39;;;;;;;219.98;42.10;;;0.70;99.90;;;;;;5011514;28;20014;-88
2021/12/22 01:57:09;;;;;;;55.00;27.00;;;0.70;99.90;;;;;;5011414;28;20483;-87
2021/12/22 01:59:36;;;;;;;50.60;25.60;;;0.80;99.90;;;;;;5011788;28;20157;-88
2021/12/22 02:02:06;;;;;;;58.47;24.40;;;0.90;99.90;;;;;;5011354;28;20026;-87
2021/12/22 02:04:35;;;;;;;56.72;25.42;;;0.90;99.90;;;;;;5011431;28;20433;-88
2021/12/22 02:07:01;;;;;;;59.08;26.23;;;0.80;99.90;;;;;;5011408;28;20097;-87
2021/12/22 02:09:55;;;;;;;53.10;24.25;;;0.70;99.90;;;;;;5012501;28;20086;-88
2021/12/22 02:12:13;;;;;;;54.92;25.75;;;0.70;99.90;;;;;;5011345;28;20053;-87
2021/12/22 02:14:40;;;;;;;51.30;24.42;;;0.70;99.90;;;;;;5011089;28;20036;-88
2021/12/22 02:17:09;;;;;;;63.15;26.52;;;0.70;99.90;;;;;;4993528;28;20486;-87
2021/12/22 02:19:44;;;;;;;58.03;24.58;;;0.70;99.90;;;;;;5011317;28;20509;-87
2021/12/22 02:22:13;;;;;;;57.63;23.73;;;0.60;99.90;;;;;;5011397;28;20025;-87
2021/12/22 02:24:44;;;;;;;63.55;24.88;;;0.70;99.90;;;;;;4993648;28;20022;-88
2021/12/22 02:27:19;;;;;;;48.63;24.15;;;0.60;99.90;;;;;;5011205;28;20026;-88
2021/12/22 02:29:47;;;;;;;55.35;24.50;;;0.60;99.90;;;;;;5010944;28;20022;-87
2021/12/22 02:32:40;;;;;;;47.75;23.30;;;0.70;99.90;;;;;;5011168;28;20030;-88
2021/12/22 02:35:03;;;;;;;52.60;24.20;;;0.70;99.90;;;;;;5009982;28;20018;-87
2021/12/22 02:37:30;;;;;;;46.40;22.85;;;0.80;99.90;;;;;;5011107;28;20025;-87
2021/12/22 02:40:10;;;;;;;48.50;23.98;;;0.80;99.90;;;;;;5010950;28;20015;-88
2021/12/22 02:42:37;;;;;;;52.97;24.73;;;0.80;99.90;;;;;;4993403;28;20553;-88
2021/12/22 02:45:14;;;;;;;72.60;23.75;;;0.80;99.90;;;;;;5010908;28;20035;-88
2021/12/22 02:47:40;;;;;;;93.28;26.92;;;0.70;99.90;;;;;;5011546;28;20050;-88
2021/12/22 02:50:09;;;;;;;57.03;23.75;;;0.70;99.90;;;;;;5010575;28;20064;-88
2021/12/22 02:53:18;;;;;;;53.08;22.88;;;0.80;99.90;;;;;;5011187;28;20038;-87
2021/12/22 02:55:30;;;;;;;492.05;59.10;;;0.70;99.90;;;;;;5002130;28;20506;-88
2021/12/22 02:58:00;;;;;;;57.53;25.60;;;0.80;99.90;;;;;;5010919;28;20022;-88
2021/12/22 03:00:35;;;;;;;51.50;22.98;;;0.80;99.90;;;;;;5010863;28;20017;-87
2021/12/22 03:03:14;;;;;;;52.75;25.23;;;0.90;99.90;;;;;;5010743;28;20026;-88
2021/12/22 03:05:40;;;;;;;51.90;25.10;;;1.00;99.90;;;;;;5010550;28;20050;-87
2021/12/22 03:08:08;;;;;;;50.83;25.05;;;1.00;99.90;;;;;;4993340;28;20057;-89
2021/12/22 03:10:34;;;;;;;53.13;25.50;;;0.90;99.90;;;;;;5010686;28;20034;-87
2021/12/22 03:13:03;;;;;;;48.33;22.65;;;0.90;99.90;;;;;;5010614;28;20030;-87
2021/12/22 03:15:30;;;;;;;53.97;22.17;;;1.00;99.90;;;;;;5010568;28;20101;-87
2021/12/22 03:17:56;;;;;;;49.13;22.42;;;1.00;99.90;;;;;;4992819;28;20034;-88
2021/12/22 03:20:22;;;;;;;43.38;21.92;;;1.00;99.90;;;;;;5010724;28;20085;-88
2021/12/22 03:22:48;;;;;;;42.05;21.20;;;1.00;99.90;;;;;;5011012;28;20478;-87
2021/12/22 03:25:17;;;;;;;44.42;21.65;;;1.00;99.90;;;;;;5010661;28;20022;-88
2021/12/22 03:27:50;;;;;;;48.33;21.88;;;1.10;99.90;;;;;;5010711;28;20113;-88
2021/12/22 03:30:18;;;;;;;52.92;23.35;;;1.10;99.90;;;;;;5010626;28;20271;-87
2021/12/22 03:32:44;;;;;;;48.45;23.08;;;1.00;99.90;;;;;;5010516;28;20026;-87
2021/12/22 03:35:16;;;;;;;41.08;20.85;;;1.10;99.90;;;;;;5010156;28;20026;-87
2021/12/22 03:37:43;;;;;;;42.45;21.67;;;1.10;99.90;;;;;;5010348;28;20402;-88
2021/12/22 03:40:10;;;;;;;40.25;20.15;;;1.10;99.90;;;;;;5010312;28;20089;-87
2021/12/22 03:42:36;;;;;;;42.13;21.65;;;1.20;99.90;;;;;;4992783;28;20030;-87
2021/12/22 03:45:02;;;;;;;43.05;22.52;;;1.20;99.90;;;;;;5010546;28;20081;-88
2021/12/22 03:47:28;;;;;;;54.00;21.83;;;1.20;99.90;;;;;;5010672;28;20033;-88
2021/12/22 03:49:54;;;;;;;56.50;22.58;;;1.10;99.90;;;;;;5010316;28;20352;-88
2021/12/22 03:52:20;;;;;;;48.50;22.45;;;1.00;99.90;;;;;;5010335;28;20026;-88
2021/12/22 03:54:45;;;;;;;48.63;22.52;;;1.00;99.90;;;;;;4992632;28;20099;-88
2021/12/22 03:57:11;;;;;;;47.10;22.50;;;1.00;99.90;;;;;;5012572;28;20061;-88
2021/12/22 03:59:37;;;;;;;43.92;22.45;;;0.90;99.90;;;;;;5013627;28;20033;-87
2021/12/22 04:02:03;;;;;;;45.47;22.80;;;0.90;99.90;;;;;;5013891;28;20032;-88
2021/12/22 04:04:29;;;;;;;44.30;21.77;;;0.80;99.90;;;;;;4996032;28;20505;-88
2021/12/22 04:06:58;;;;;;;51.38;21.92;;;0.90;99.90;;;;;;5013667;28;20041;-87
2021/12/22 04:09:27;;;;;;;44.35;21.80;;;0.80;99.90;;;;;;5016756;28;20025;-88
2021/12/22 04:11:53;;;;;;;50.13;22.80;;;0.80;99.90;;;;;;5014550;28;20029;-88
2021/12/22 04:14:19;;;;;;;50.67;23.23;;;0.70;99.90;;;;;;5013514;28;20060;-88
2021/12/22 04:16:45;;;;;;;47.03;22.20;;;0.70;99.90;;;;;;4995794;28;20490;-87
2021/12/22 04:19:12;;;;;;;54.75;22.67;;;0.70;99.90;;;;;;5013116;28;20442;-87
2021/12/22 04:21:37;;;;;;;45.65;22.40;;;0.70;99.90;;;;;;5013362;28;20036;-87
2021/12/22 04:24:05;;;;;;;216.70;39.17;;;0.60;99.90;;;;;;4995796;28;20030;-87
2021/12/22 04:26:32;;;;;;;46.17;23.50;;;0.70;99.90;;;;;;5013731;28;20038;-88
2021/12/22 04:28:58;;;;;;;48.15;23.80;;;0.70;99.90;;;;;;5013284;28;20049;-88
2021/12/22 04:31:24;;;;;;;60.28;24.02;;;0.80;99.90;;;;;;4995689;28;20522;-88
2021/12/22 04:33:49;;;;;;;48.10;24.27;;;0.90;99.90;;;;;;5013092;28;20029;-87
2021/12/22 04:36:15;;;;;;;58.35;25.20;;;0.70;99.90;;;;;;5012974;28;20030;-87
2021/12/22 04:38:42;;;;;;;57.08;24.88;;;0.70;99.90;;;;;;5013134;28;20463;-87
2021/12/22 04:41:08;;;;;;;62.53;25.70;;;0.70;99.90;;;;;;4995216;28;20033;-88
2021/12/22 04:43:34;;;;;;;75.15;26.67;;;0.60;99.90;;;;;;5012940;28;20022;-88
2021/12/22 04:46:00;;;;;;;57.90;25.98;;;0.60;99.90;;;;;;5013250;28;20040;-87
2021/12/22 04:48:26;;;;;;;49.38;24.38;;;0.70;99.90;;;;;;5012783;28;20034;-88
2021/12/22 04:50:51;;;;;;;54.22;25.50;;;0.60;99.90;;;;;;5012865;28;20018;-88
2021/12/22 04:53:23;;;;;;;46.67;24.13;;;0.70;99.90;;;;;;5012989;28;20027;-88
2021/12/22 04:55:49;;;;;;;892.05;65.65;;;0.70;99.90;;;;;;5012527;28;20037;-87
2021/12/22 04:58:15;;;;;;;50.08;25.58;;;0.70;99.90;;;;;;5012711;28;20022;-88
2021/12/22 05:00:40;;;;;;;48.42;24.15;;;0.90;99.90;;;;;;4994805;28;20026;-90
2021/12/22 05:03:06;;;;;;;49.58;25.38;;;0.90;99.90;;;;;;4995033;28;20079;-88
2021/12/22 05:05:32;;;;;;;43.85;22.98;;;1.00;99.90;;;;;;5012330;28;20138;-87
2021/12/22 05:07:58;;;;;;;99.90;27.05;;;1.00;99.90;;;;;;4994935;28;20109;-88
2021/12/22 05:10:26;;;;;;;48.80;21.90;;;1.00;99.90;;;;;;5013012;28;20030;-88
2021/12/22 05:12:52;;;;;;;67.10;23.20;;;0.90;99.90;;;;;;5012517;28;20509;-87
2021/12/22 05:15:23;;;;;;;73.20;24.38;;;0.80;99.90;;;;;;4994531;28;20034;-87
2021/12/22 05:20:16;;;;;;;44.13;22.35;;;0.70;99.90;;;;;;5012160;28;20403;-87
2021/12/22 05:22:42;;;;;;;49.33;22.55;;;0.80;99.90;;;;;;5012032;28;20029;-87
2021/12/22 05:25:10;;;;;;;56.00;23.15;;;0.80;99.90;;;;;;5012348;28;20501;-87
2021/12/22 05:27:36;;;;;;;43.67;22.08;;;0.70;99.90;;;;;;4994724;28;20086;-87
2021/12/22 05:30:05;;;;;;;57.13;22.35;;;0.60;99.90;;;;;;4994564;28;20030;-87
2021/12/22 05:32:32;;;;;;;46.45;21.90;;;0.70;99.90;;;;;;5012033;28;20033;-87
2021/12/22 05:34:59;;;;;;;44.95;22.25;;;0.70;99.90;;;;;;5012039;28;20026;-87
2021/12/22 05:37:24;;;;;;;49.83;22.27;;;0.70;99.90;;;;;;5011750;28;20510;-87
2021/12/22 05:39:50;;;;;;;48.00;21.63;;;0.70;99.90;;;;;;5011718;28;20018;-87
2021/12/22 05:42:16;;;;;;;49.15;21.77;;;0.70;99.90;;;;;;5012045;28;20097;-87
2021/12/22 05:44:42;;;;;;;40.38;21.52;;;0.70;99.90;;;;;;5011632;28;20156;-87
2021/12/22 05:47:08;;;;;;;216.25;37.70;;;0.70;99.90;;;;;;5011870;28;20026;-87
2021/12/22 05:49:35;;;;;;;48.47;21.25;;;0.80;99.90;;;;;;5011986;28;20045;-87
2021/12/22 05:52:01;;;;;;;53.90;23.73;;;0.80;99.90;;;;;;4994221;28;20022;-87
2021/12/22 05:54:27;;;;;;;48.17;23.35;;;0.80;99.90;;;;;;5012055;28;20463;-87
2021/12/22 05:56:52;;;;;;;41.90;21.70;;;0.80;99.90;;;;;;5011532;28;20038;-87
2021/12/22 05:59:18;;;;;;;63.22;24.02;;;0.70;99.90;;;;;;5011514;28;20018;-87
2021/12/22 06:01:44;;;;;;;44.83;22.48;;;0.70;99.90;;;;;;4993671;28;20030;-87
2021/12/22 06:04:10;;;;;;;42.20;22.85;;;0.70;99.90;;;;;;5011395;28;20022;-88
2021/12/22 06:06:35;;;;;;;55.05;24.35;;;0.80;99.90;;;;;;5011721;28;20050;-88
2021/12/22 06:09:01;;;;;;;45.75;23.80;;;0.80;99.90;;;;;;4995964;28;20030;-87
2021/12/22 06:11:27;;;;;;;42.78;21.73;;;0.80;99.90;;;;;;5011681;28;20110;-87
2021/12/22 06:13:52;;;;;;;44.30;23.40;;;0.80;99.90;;;;;;5011443;28;20359;-87
2021/12/22 06:16:18;;;;;;;45.20;22.05;;;0.90;99.90;;;;;;4993687;28;20026;-87
2021/12/22 06:18:45;;;;;;;49.80;22.52;;;0.80;99.90;;;;;;5010862;28;20545;-87
2021/12/22 06:21:13;;;;;;;49.63;23.95;;;0.80;99.90;;;;;;4993459;28;20026;-87
2021/12/22 06:23:39;;;;;;;42.10;20.33;;;0.80;99.90;;;;;;5011171;28;20022;-87
2021/12/22 06:26:06;;;;;;;52.30;22.80;;;0.80;99.90;;;;;;5011235;28;20161;-87
2021/12/22 06:28:31;;;;;;;45.58;22.75;;;0.90;99.90;;;;;;5011262;28;20044;-87
2021/12/22 06:30:57;;;;;;;49.88;21.38;;;0.90;99.90;;;;;;5011368;28;20475;-88
2021/12/22 06:33:23;;;;;;;47.90;22.27;;;0.80;99.90;;;;;;4993934;28;20124;-88
2021/12/22 06:35:49;;;;;;;46.58;21.98;;;0.80;99.90;;;;;;5011098;28;20445;-88
2021/12/22 06:38:16;;;;;;;67.78;23.35;;;0.80;99.90;;;;;;5011056;28;20022;-88
2021/12/22 06:40:42;;;;;;;42.55;22.17;;;0.90;99.90;;;;;;5010935;28;20112;-88
2021/12/22 06:43:08;;;;;;;39.00;21.30;;;0.80;99.90;;;;;;4993225;28;20029;-88
2021/12/22 06:45:34;;;;;;;38.75;20.65;;;0.80;99.90;;;;;;4993272;28;20026;-89
2021/12/22 06:48:00;;;;;;;39.92;21.95;;;0.70;99.90;;;;;;4993330;28;20133;-88
2021/12/22 06:50:26;;;;;;;40.42;23.15;;;0.80;99.90;;;;;;5010936;28;20037;-89
2021/12/22 06:52:52;;;;;;;41.83;22.90;;;0.70;99.90;;;;;;5011043;28;20030;-90
2021/12/22 06:55:18;;;;;;;38.78;21.65;;;0.80;99.90;;;;;;5011041;28;20026;-88
2021/12/22 06:57:44;;;;;;;42.28;23.45;;;0.80;99.90;;;;;;5016001;28;20034;-88
2021/12/22 07:00:12;;;;;;;39.38;21.48;;;0.80;99.90;;;;;;5017889;28;20021;-89
2021/12/22 07:02:39;;;;;;;40.63;22.08;;;0.80;99.90;;;;;;5018606;28;20026;-88
2021/12/22 07:05:08;;;;;;;45.05;22.52;;;0.80;99.90;;;;;;5018563;28;20081;-89
2021/12/22 07:07:34;;;;;;;37.33;22.50;;;0.80;99.90;;;;;;5019934;28;20069;-89
2021/12/22 07:09:59;;;;;;;43.72;23.13;;;0.70;99.90;;;;;;5021420;28;20033;-89
2021/12/22 07:12:25;;;;;;;41.30;22.55;;;0.80;99.90;;;;;;5022646;28;20052;-89
2021/12/22 07:14:51;;;;;;;40.72;22.00;;;0.80;99.90;;;;;;5026844;28;20034;-89
2021/12/22 07:17:17;;;;;;;43.72;22.35;;;0.80;99.90;;;;;;5029188;28;20078;-89
2021/12/22 07:19:43;;;;;;;40.50;22.55;;;0.80;99.90;;;;;;5030398;28;20072;-89
2021/12/22 07:22:08;;;;;;;39.58;22.20;;;0.80;99.90;;;;;;5031289;28;20037;-89
2021/12/22 07:24:35;;;;;;;44.33;22.65;;;0.80;99.90;;;;;;5026697;28;20026;-89
2021/12/22 07:27:01;;;;;;;39.72;22.33;;;0.80;99.90;;;;;;5016343;28;20022;-90
2021/12/22 07:29:27;;;;;;;38.95;21.67;;;0.80;99.90;;;;;;5004376;28;20034;-89
2021/12/22 07:31:52;;;;;;;39.30;21.25;;;0.70;99.90;;;;;;5020921;28;20020;-89
2021/12/22 07:34:27;;;;;;;37.45;21.70;;;0.70;99.90;;;;;;5024604;28;20037;-89
2021/12/22 07:37:03;;;;;;;41.60;22.02;;;0.80;99.90;;;;;;5027352;28;20030;-90
2021/12/22 07:39:29;;;;;;;40.45;21.88;;;0.80;99.90;;;;;;5026389;28;20022;-89
2021/12/22 07:41:55;;;;;;;40.88;22.17;;;0.60;99.90;;;;;;5028081;28;20474;-89
2021/12/22 07:44:21;;;;;;;43.50;22.92;;;0.70;99.90;;;;;;5027501;28;20114;-89
2021/12/22 07:46:47;;;;;;;47.30;27.25;;;0.80;99.90;;;;;;5024010;28;20034;-90
2021/12/22 07:49:13;;;;;;;40.53;24.50;;;0.80;99.90;;;;;;5010535;28;20021;-89
2021/12/22 07:51:38;;;;;;;43.33;23.85;;;0.80;99.90;;;;;;5029945;28;20049;-89
2021/12/22 07:54:04;;;;;;;41.05;24.10;;;0.80;99.90;;;;;;5011507;28;20137;-91
2021/12/22 07:56:30;;;;;;;38.72;22.55;;;0.80;99.90;;;;;;5021095;28;20060;-89
2021/12/22 07:58:56;;;;;;;44.33;25.02;;;0.90;99.90;;;;;;5035347;28;20022;-90
2021/12/22 08:01:23;;;;;;;41.15;23.52;;;0.90;99.90;;;;;;5034185;28;20033;-89
2021/12/22 08:03:49;;;;;;;44.88;23.23;;;0.80;99.90;;;;;;5014624;28;20510;-90
2021/12/22 08:06:15;;;;;;;45.50;23.88;;;0.70;99.90;;;;;;5028975;28;20049;-90
2021/12/22 08:08:41;;;;;;;40.40;22.50;;;0.80;99.90;;;;;;5028221;28;20052;-89
2021/12/22 08:11:07;;;;;;;44.25;22.88;;;0.80;99.90;;;;;;5016654;28;20026;-90
2021/12/22 08:13:34;;;;;;;43.05;22.88;;;0.80;99.90;;;;;;4998362;28;20504;-90
2021/12/22 08:16:01;;;;;;;49.65;27.70;;;0.80;99.90;;;;;;5014258;28;20153;-89
2021/12/22 08:18:27;;;;;;;46.97;25.05;;;0.80;99.90;;;;;;4996278;28;20124;-88
2021/12/22 08:20:54;;;;;;;43.30;24.20;;;0.90;99.90;;;;;;4996677;28;20022;-90
2021/12/22 08:23:20;;;;;;;40.38;22.80;;;0.90;99.90;;;;;;5013702;28;20022;-89
2021/12/22 08:25:47;;;;;;;41.95;22.77;;;0.90;99.90;;;;;;4996094;28;20022;-89
2021/12/22 08:28:13;;;;;;;42.10;23.73;;;1.00;99.90;;;;;;5013628;28;20036;-89
2021/12/22 08:30:39;;;;;;;43.22;24.27;;;1.20;99.90;;;;;;5013865;28;20026;-89
2021/12/22 08:33:09;;;;;;;38.35;21.63;;;1.20;99.90;;;;;;4996121;28;20022;-90
2021/12/22 08:38:50;;;;;;;40.28;22.45;;;1.30;99.90;;;;;;4996026;28;20034;-90
2021/12/22 08:41:06;;;;;;;33.83;20.45;;;1.40;99.90;;;;;;5013314;28;20033;-90
2021/12/22 08:43:32;;;;;;;33.58;19.48;;;1.20;99.90;;;;;;4994827;28;20030;-90
2021/12/22 08:45:58;;;;;;;36.95;21.75;;;1.20;99.90;;;;;;5013152;28;20029;-89
2021/12/22 08:48:25;;;;;;;39.90;21.95;;;1.40;99.90;;;;;;5012868;28;20030;-91
2021/12/22 08:50:50;;;;;;;35.65;20.98;;;1.40;99.90;;;;;;4995503;28;20079;-90
2021/12/22 08:53:16;;;;;;;34.97;20.30;;;1.60;99.90;;;;;;4995774;28;20509;-90
2021/12/22 08:55:42;;;;;;;39.90;21.27;;;1.50;99.90;;;;;;4995481;28;20029;-90
2021/12/22 08:58:07;;;;;;;35.63;20.73;;;1.50;99.90;;;;;;5012945;28;20036;-90
2021/12/22 09:00:36;;;;;;;38.60;22.73;;;1.60;99.90;;;;;;5012848;28;20026;-90
2021/12/22 09:03:02;;;;;;;34.33;20.52;;;1.60;99.90;;;;;;5012458;28;20018;-90
2021/12/22 09:05:27;;;;;;;42.22;23.52;;;1.60;99.90;;;;;;4994597;28;20068;-90
2021/12/22 09:07:53;;;;;;;41.28;22.88;;;1.50;99.90;;;;;;4994739;28;20123;-89
2021/12/22 09:10:19;;;;;;;40.80;23.45;;;1.50;99.90;;;;;;5012596;28;20022;-90
2021/12/22 09:12:45;;;;;;;36.42;22.55;;;1.50;99.90;;;;;;5012296;28;20527;-90
2021/12/22 09:15:10;;;;;;;41.22;23.65;;;1.60;99.90;;;;;;4995050;28;20134;-90
2021/12/22 09:17:36;;;;;;;41.45;23.58;;;1.70;99.90;;;;;;4994977;28;20061;-90
2021/12/22 09:20:03;;;;;;;44.20;22.52;;;1.60;99.90;;;;;;5012498;28;20177;-90
2021/12/22 09:22:29;;;;;;;36.78;21.65;;;1.70;99.90;;;;;;4995017;28;20076;-90
2021/12/22 09:24:54;;;;;;;36.88;22.65;;;1.60;99.90;;;;;;5011872;28;20018;-90
2021/12/22 09:27:20;;;;;;;40.05;22.80;;;1.70;99.90;;;;;;4994357;28;20026;-90
2021/12/22 09:29:46;;;;;;;34.72;21.00;;;1.90;99.90;;;;;;4994427;28;20053;-90
2021/12/22 09:32:17;;;;;;;37.17;21.60;;;1.90;99.90;;;;;;4994745;28;20044;-91
2021/12/22 09:34:44;;;;;;;43.90;23.88;;;1.90;99.90;;;;;;4994713;28;20026;-91
2021/12/22 09:37:10;;;;;;;81.50;33.53;;;1.90;99.90;;;;;;4995038;28;20057;-90
2021/12/22 09:39:36;;;;;;;38.83;21.85;;;2.00;99.90;;;;;;5011933;28;20021;-90
2021/12/22 09:42:02;;;;;;;34.13;19.67;;;2.00;99.90;;;;;;5012163;28;20100;-91
2021/12/22 09:44:32;;;;;;;35.25;21.30;;;2.10;99.90;;;;;;5012041;28;20042;-91
2021/12/22 09:46:59;;;;;;;31.05;18.83;;;2.00;99.90;;;;;;4994386;28;20115;-90
2021/12/22 09:50:10;;;;;;;34.95;20.70;;;2.10;99.90;;;;;;4994134;28;20121;-91
2021/12/22 09:52:21;;;;;;;30.17;19.60;;;2.20;99.90;;;;;;5003734;28;20529;-90
2021/12/22 09:54:49;;;;;;;32.08;19.50;;;2.10;99.90;;;;;;4994350;28;20438;-92
2021/12/22 09:57:18;;;;;;;33.42;19.38;;;2.20;99.90;;;;;;5012370;28;20029;-90
2021/12/22 09:59:49;;;;;;;35.38;19.27;;;2.30;99.90;;;;;;4994459;28;20494;-90
2021/12/22 10:02:16;;;;;;;29.02;18.45;;;2.40;99.90;;;;;;5012128;28;20037;-90
2021/12/22 10:04:42;;;;;;;29.63;18.98;;;2.50;99.90;;;;;;5001229;28;20022;-91
2021/12/22 10:07:10;;;;;;;28.67;18.60;;;2.50;99.90;;;;;;5000764;28;20033;-91
2021/12/22 10:09:44;;;;;;;28.73;18.63;;;2.60;99.90;;;;;;4994185;28;20022;-90
2021/12/22 10:12:24;;;;;;;28.60;18.48;;;2.70;99.90;;;;;;5011710;28;20021;-91
2021/12/22 10:14:55;;;;;;;29.85;18.17;;;2.90;99.90;;;;;;5011674;28;20054;-91
2021/12/22 10:17:43;;;;;;;27.27;18.13;;;3.00;99.90;;;;;;4994037;28;20038;-91
2021/12/22 10:20:15;;;;;;;26.10;16.52;;;3.20;99.90;;;;;;4994183;28;20032;-91
2021/12/22 10:22:44;;;;;;;25.75;16.73;;;3.40;99.90;;;;;;4994217;28;20018;-91
2021/12/22 10:25:20;;;;;;;28.02;18.08;;;3.60;99.90;;;;;;5011639;28;20026;-92
2021/12/22 10:27:56;;;;;;;26.25;16.73;;;3.70;99.90;;;;;;5011910;28;20026;-91
2021/12/22 10:30:35;;;;;;;26.20;16.48;;;3.80;99.90;;;;;;5011436;28;20022;-91
2021/12/22 10:33:08;;;;;;;26.05;16.15;;;3.90;99.90;;;;;;4993982;28;20330;-91
2021/12/22 10:35:35;;;;;;;23.02;15.73;;;3.90;99.90;;;;;;5011373;28;20026;-94
2021/12/22 10:38:02;;;;;;;26.50;16.88;;;3.90;99.90;;;;;;4994025;28;20034;-91
2021/12/22 10:40:32;;;;;;;24.77;16.17;;;4.00;99.90;;;;;;4993901;28;20076;-91
2021/12/22 10:42:59;;;;;;;72.72;18.02;;;4.20;99.90;;;;;;5011501;28;20034;-92
2021/12/22 10:45:27;;;;;;;24.33;15.77;;;4.30;99.90;;;;;;4993888;28;20029;-92
2021/12/22 10:50:43;;;;;;;23.08;15.60;;;4.50;99.90;;;;;;5011297;28;20513;-92
2021/12/22 10:53:12;;;;;;;22.35;16.05;;;4.60;99.90;;;;;;5011449;28;20030;-91
2021/12/22 10:55:44;;;;;;;43.75;23.80;;;4.80;99.90;;;;;;4993437;28;20022;-91
2021/12/22 10:58:28;;;;;;;45.80;21.45;;;4.90;99.90;;;;;;4993724;28;20402;-91
2021/12/22 11:01:03;;;;;;;29.13;17.77;;;4.90;99.90;;;;;;4993721;28;20020;-92
2021/12/22 11:03:52;;;;;;;24.55;17.25;;;4.90;99.90;;;;;;5011453;28;20029;-90
2021/12/22 11:06:24;;;;;;;28.98;17.20;;;5.00;99.90;;;;;;4996015;28;20053;-94
2021/12/22 11:09:00;;;;;;;27.40;18.05;;;5.00;99.90;;;;;;5015614;28;20022;-91
2021/12/22 11:11:36;;;;;;;28.23;17.50;;;5.10;99.90;;;;;;4997775;28;20060;-90
2021/12/22 11:14:11;;;;;;;26.23;16.60;;;5.10;99.90;;;;;;5019061;28;20022;-90
2021/12/22 11:16:59;;;;;;;27.02;17.48;;;5.20;99.90;;;;;;4997825;28;20394;-91
2021/12/22 11:19:28;;;;;;;31.20;18.95;;;5.20;99.90;;;;;;5014776;28;20101;-91
2021/12/22 11:22:15;;;;;;;28.75;17.80;;;5.30;99.90;;;;;;4997225;28;20026;-91
2021/12/22 11:24:44;;;;;;;29.52;18.45;;;5.40;99.90;;;;;;4999649;28;20251;-91
2021/12/22 11:27:12;;;;;;;25.88;17.77;;;5.40;99.90;;;;;;5009978;28;20060;-91
2021/12/22 11:29:41;;;;;;;26.35;17.55;;;5.40;99.90;;;;;;5021801;28;20026;-90
2021/12/22 11:32:08;;;;;;;27.15;17.15;;;5.50;99.90;;;;;;5018332;28;20021;-91
2021/12/22 11:34:37;;;;;;;25.85;17.80;;;5.60;99.90;;;;;;5016114;28;20017;-91
2021/12/22 11:37:10;;;;;;;30.98;18.02;;;5.70;99.90;;;;;;5034312;28;20120;-90
2021/12/22 11:39:36;;;;;;;26.17;17.60;;;5.70;99.90;;;;;;5016884;28;20117;-89
2021/12/22 11:42:07;;;;;;;25.92;16.48;;;5.80;99.90;;;;;;5034749;28;20513;-93
2021/12/22 11:44:34;;;;;;;28.17;17.95;;;5.80;99.90;;;;;;5034193;28;20105;-90
2021/12/22 11:47:05;;;;;;;24.90;16.73;;;5.80;99.90;;;;;;5034201;28;20048;-90
2021/12/22 11:49:34;;;;;;;25.50;17.05;;;5.80;99.90;;;;;;5017195;28;20033;-90
2021/12/22 11:52:02;;;;;;;24.42;15.85;;;5.80;99.90;;;;;;5016193;28;20029;-90
2021/12/22 11:54:28;;;;;;;25.98;16.02;;;6.00;99.90;;;;;;5034181;28;20029;-90
2021/12/22 11:56:58;;;;;;;23.88;16.30;;;6.10;99.90;;;;;;5015957;28;20029;-90
2021/12/22 11:59:37;;;;;;;25.42;16.08;;;6.20;99.90;;;;;;5016724;28;20029;-90
2021/12/22 12:02:33;;;;;;;27.50;16.40;;;6.30;99.90;;;;;;5039340;28;20021;-90
2021/12/22 12:05:29;;;;;;;22.60;16.02;;;6.40;99.90;;;;;;4999353;28;20086;-90
2021/12/22 12:08:10;;;;;;;24.08;15.00;;;6.60;99.90;;;;;;5033694;28;20113;-90
2021/12/22 12:10:38;;;;;;;21.00;14.77;;;6.80;99.90;;;;;;5033514;28;20039;-90
2021/12/22 12:13:10;;;;;;;23.30;15.10;;;7.00;99.90;;;;;;5033539;28;20022;-91
2021/12/22 12:22:09;;;;;;;;;;;7.50;99.90;;;;;;5034081;28;20036;-90
2021/12/22 12:24:47;;;;;;;21.23;13.88;;;7.60;99.90;;;;;;5015914;28;20262;-90
2021/12/22 12:27:50;;;;;;;19.98;13.43;;;7.70;99.90;;;;;;5033556;28;20100;-90
2021/12/22 12:30:41;;;;;;;22.30;14.15;;;7.80;99.90;;;;;;5015865;28;20029;-89
2021/12/22 12:33:19;;;;;;;19.75;14.13;;;7.90;99.90;;;;;;5015821;28;20064;-91
2021/12/22 12:35:58;;;;;;;20.20;13.18;;;8.00;99.90;;;;;;5016150;28;20025;-91
2021/12/22 12:38:30;;;;;;;19.73;12.98;;;8.20;99.90;;;;;;5033495;28;20025;-90
2021/12/22 12:41:05;;;;;;;18.90;12.90;;;8.20;99.90;;;;;;5033684;28;20486;-92
2021/12/22 12:46:20;;;;;;;20.13;12.85;;;8.40;99.90;;;;;;5033427;28;20040;-90
2021/12/22 12:48:46;;;;;;;18.52;13.05;;;8.50;99.90;;;;;;5016005;28;20061;-91
2021/12/22 12:51:29;;;;;;;17.52;12.80;;;8.60;99.90;;;;;;5033582;28;20026;-91
2021/12/22 12:53:58;;;;;;;22.17;13.73;;;8.60;99.90;;;;;;5033003;28;20029;-88
2021/12/22 12:56:34;;;;;;;26.30;15.57;;;8.70;99.90;;;;;;5033105;28;20044;-89
2021/12/22 12:59:06;;;;;;;20.80;13.88;;;8.70;99.90;;;;;;5032999;28;20028;-87
2021/12/22 13:01:47;;;;;;;18.20;12.98;;;8.70;99.90;;;;;;5032341;28;20079;-89
2021/12/22 13:04:27;;;;;;;19.25;13.95;;;8.70;99.90;;;;;;5032526;28;20088;-89
2021/12/22 13:07:13;;;;;;;19.38;13.10;;;8.70;99.90;;;;;;5014852;28;20409;-89